Time;durP1;ratioP1;P1;durP2;ratioP2;P2;SDS_P1;SDS_P2;PMS_P1;PMS_P2;Temp;Humidity;BMP_temperature;BMP_pressure;BME280_temperature;BME280_humidity;BME280_pressure;Samples;Min_cycle;Max_cycle;Signal;HPM_P1;HPM_P2
2023/02/05 00:01:10;;;;;;;6.20;5.53;;;4.20;37.00;;;;;;10480098;28;20244;-73
2023/02/05 00:06:14;;;;;;;5.40;4.90;;;4.10;37.00;;;;;;10480491;28;20263;-73
2023/02/05 00:11:18;;;;;;;6.77;6.07;;;4.10;36.80;;;;;;10478546;28;20232;-73
2023/02/05 00:16:23;;;;;;;6.50;5.90;;;4.00;36.80;;;;;;10477517;28;20228;-73
2023/02/05 00:21:27;;;;;;;6.93;5.50;;;4.10;37.00;;;;;;10478526;28;20268;-74
2023/02/05 00:26:31;;;;;;;7.47;5.83;;;3.90;36.80;;;;;;10477041;28;20220;-74
2023/02/05 00:31:34;;;;;;;5.47;4.87;;;3.90;36.90;;;;;;10473834;28;20259;-73
2023/02/05 00:36:39;;;;;;;5.90;5.10;;;3.90;37.00;;;;;;10484619;28;20238;-73
2023/02/05 00:41:42;;;;;;;5.63;5.10;;;3.80;37.00;;;;;;10486765;28;20239;-73
2023/02/05 00:46:45;;;;;;;5.10;4.70;;;3.80;37.10;;;;;;10488377;28;20239;-74
2023/02/05 00:51:49;;;;;;;5.13;4.63;;;3.70;37.10;;;;;;10481555;28;20247;-74
2023/02/05 00:56:53;;;;;;;4.80;4.40;;;3.70;37.00;;;;;;10485094;28;20236;-73
2023/02/05 01:01:56;;;;;;;5.07;4.57;;;3.70;37.10;;;;;;10479422;28;20236;-74
2023/02/05 01:07:00;;;;;;;5.53;5.03;;;3.70;37.00;;;;;;10485565;28;20224;-73
2023/02/05 01:12:04;;;;;;;5.20;4.73;;;3.60;36.90;;;;;;10486613;28;20742;-73
2023/02/05 01:17:07;;;;;;;5.27;4.77;;;3.50;37.10;;;;;;10486432;28;20261;-73
2023/02/05 01:22:12;;;;;;;5.03;4.63;;;3.50;37.10;;;;;;10485333;28;20229;-74
2023/02/05 01:27:15;;;;;;;4.53;4.00;;;3.40;37.00;;;;;;10481205;28;20232;-73
2023/02/05 01:32:18;;;;;;;4.37;3.97;;;3.30;37.80;;;;;;10484114;28;20227;-74
2023/02/05 01:37:23;;;;;;;4.30;3.90;;;3.30;37.10;;;;;;10484092;28;20267;-74
2023/02/05 01:42:28;;;;;;;4.47;4.07;;;3.30;37.10;;;;;;10485635;28;20240;-74
2023/02/05 01:47:32;;;;;;;4.70;4.27;;;3.30;37.20;;;;;;10486332;28;20232;-74
2023/02/05 01:52:36;;;;;;;3.97;3.60;;;3.30;37.20;;;;;;10480343;28;20239;-74
2023/02/05 01:57:40;;;;;;;4.67;3.97;;;3.30;37.10;;;;;;10486457;28;20232;-75
2023/02/05 02:02:44;;;;;;;4.40;4.00;;;3.20;37.20;;;;;;10479870;28;20240;-74
2023/02/05 02:07:48;;;;;;;5.47;4.87;;;3.20;37.00;;;;;;10483928;28;20239;-75
2023/02/05 02:12:53;;;;;;;6.57;4.77;;;3.10;36.80;;;;;;10485956;28;20631;-74
2023/02/05 02:18:24;;;;;;;5.10;4.60;;;3.10;37.00;;;;;;10482761;28;20237;-74
2023/02/05 02:23:35;;;;;;;4.77;4.27;;;3.00;37.30;;;;;;10482802;28;20224;-74
2023/02/05 02:28:45;;;;;;;4.17;3.77;;;2.90;37.40;;;;;;10486515;28;20689;-74
2023/02/05 02:33:56;;;;;;;4.53;3.80;;;2.90;37.50;;;;;;10479382;28;20240;-74
2023/02/05 02:39:09;;;;;;;3.93;3.60;;;2.90;37.50;;;;;;10481933;28;20217;-74
2023/02/05 02:44:18;;;;;;;3.77;3.47;;;3.10;37.70;;;;;;10481239;28;21271;-74
2023/02/05 02:49:26;;;;;;;4.83;4.40;;;3.00;37.50;;;;;;10481100;28;20240;-74
2023/02/05 02:54:29;;;;;;;4.93;4.43;;;2.90;37.50;;;;;;10480869;28;20232;-74
2023/02/05 02:59:38;;;;;;;4.50;4.10;;;2.90;37.60;;;;;;10483386;28;20228;-74
2023/02/05 03:04:44;;;;;;;5.17;4.30;;;3.00;37.70;;;;;;10480633;28;20710;-74
2023/02/05 03:09:54;;;;;;;4.37;3.97;;;2.90;37.60;;;;;;10481213;28;20283;-74
2023/02/05 03:14:59;;;;;;;4.70;4.20;;;2.90;37.60;;;;;;10479689;28;20712;-74
2023/02/05 03:20:07;;;;;;;4.20;3.80;;;2.90;37.50;;;;;;10481135;28;20220;-74
2023/02/05 03:25:12;;;;;;;4.23;3.83;;;2.80;37.40;;;;;;10477525;28;20228;-74
2023/02/05 03:30:17;;;;;;;3.87;3.57;;;2.80;37.50;;;;;;10480703;28;20668;-74
2023/02/05 03:35:29;;;;;;;4.17;3.63;;;2.80;37.50;;;;;;10480163;28;20224;-74
2023/02/05 03:40:38;;;;;;;4.20;3.80;;;2.70;37.40;;;;;;10478921;28;20297;-74
2023/02/05 03:45:56;;;;;;;4.23;3.87;;;2.70;37.40;;;;;;10481816;28;20300;-74
2023/02/05 03:51:08;;;;;;;4.13;3.73;;;2.70;37.40;;;;;;10478298;28;20223;-74
2023/02/05 03:56:17;;;;;;;5.07;3.73;;;2.60;37.40;;;;;;10477951;28;20240;-74
2023/02/05 04:01:22;;;;;;;3.97;3.57;;;2.60;37.40;;;;;;10481514;28;20220;-74
2023/02/05 04:06:26;;;;;;;3.77;3.47;;;2.60;37.40;;;;;;10481820;28;20314;-74
2023/02/05 04:11:30;;;;;;;3.90;3.60;;;2.50;37.20;;;;;;10479820;28;20239;-74
2023/02/05 04:16:34;;;;;;;4.03;3.63;;;2.60;37.30;;;;;;10478624;28;20235;-75
2023/02/05 04:21:38;;;;;;;4.20;3.80;;;2.50;37.30;;;;;;10478357;28;20316;-75
2023/02/05 04:26:41;;;;;;;5.20;4.67;;;2.50;37.40;;;;;;10472565;28;20726;-73
2023/02/05 04:31:45;;;;;;;5.10;4.60;;;2.40;37.20;;;;;;10480344;28;20240;-74
2023/02/05 04:36:49;;;;;;;7.13;6.43;;;2.40;37.20;;;;;;10478201;28;20319;-74
2023/02/05 04:41:52;;;;;;;6.80;6.17;;;2.40;37.20;;;;;;10480833;28;20243;-74
2023/02/05 04:46:56;;;;;;;12.90;9.23;;;2.50;37.30;;;;;;10482435;28;20228;-74
2023/02/05 04:51:59;;;;;;;14.43;11.47;;;2.30;37.20;;;;;;10477469;28;20662;-74
2023/02/05 04:57:02;;;;;;;19.33;13.63;;;2.40;37.30;;;;;;10478969;28;20289;-74
2023/02/05 05:02:07;;;;;;;20.80;14.90;;;2.30;37.30;;;;;;10480244;28;20708;-74
2023/02/05 05:07:10;;;;;;;13.43;9.57;;;2.20;37.20;;;;;;10479807;28;20733;-74
2023/02/05 05:12:13;;;;;;;8.07;6.43;;;2.20;37.00;;;;;;10474774;28;20724;-74
2023/02/05 05:17:18;;;;;;;6.43;5.10;;;2.20;37.10;;;;;;10478149;28;20256;-74
2023/02/05 05:22:21;;;;;;;5.17;4.67;;;2.30;37.20;;;;;;10479030;28;20243;-74
2023/02/05 05:27:24;;;;;;;4.40;3.63;;;2.10;37.00;;;;;;10482037;28;20236;-74
2023/02/05 05:32:29;;;;;;;3.90;3.50;;;2.10;37.20;;;;;;10480315;28;20243;-74
2023/02/05 05:37:32;;;;;;;3.73;3.33;;;2.00;37.10;;;;;;10486328;28;21034;-74
2023/02/05 05:47:56;;;;;;;3.30;3.00;;;2.10;37.40;;;;;;10451061;28;20239;-73
2023/02/05 05:52:59;;;;;;;3.73;3.40;;;2.00;37.40;;;;;;10479980;28;20232;-74
2023/02/05 05:58:02;;;;;;;3.87;3.57;;;2.10;37.50;;;;;;10479992;28;20225;-73
2023/02/05 06:03:10;;;;;;;4.10;3.70;;;2.00;37.40;;;;;;10483479;28;20240;-73
2023/02/05 06:08:15;;;;;;;4.50;3.67;;;2.00;37.60;;;;;;10483046;28;21223;-74
2023/02/05 06:13:18;;;;;;;3.70;3.40;;;2.00;37.40;;;;;;10484154;28;20239;-73
2023/02/05 06:18:23;;;;;;;4.17;3.70;;;2.00;37.50;;;;;;10483867;28;20243;-74
2023/02/05 06:23:26;;;;;;;3.47;3.17;;;2.00;37.50;;;;;;10481473;28;20237;-73
2023/02/05 06:28:29;;;;;;;3.63;3.33;;;1.90;37.30;;;;;;10485426;28;20228;-74
2023/02/05 06:33:33;;;;;;;4.40;4.00;;;1.90;37.40;;;;;;10479367;28;20251;-73
2023/02/05 06:38:37;;;;;;;4.00;3.60;;;1.90;37.50;;;;;;10482083;28;20716;-74
2023/02/05 06:43:40;;;;;;;3.70;3.40;;;1.90;37.40;;;;;;10483661;28;20232;-75
2023/02/05 06:48:44;;;;;;;3.63;3.33;;;1.90;37.40;;;;;;10483594;28;20231;-74
2023/02/05 06:53:47;;;;;;;4.10;3.70;;;1.90;37.40;;;;;;10477842;28;20251;-74
2023/02/05 06:58:50;;;;;;;3.97;3.67;;;1.80;37.30;;;;;;10484752;28;20240;-74
2023/02/05 07:03:55;;;;;;;4.07;3.67;;;1.80;37.40;;;;;;10476991;28;20243;-74
2023/02/05 07:08:58;;;;;;;4.90;3.97;;;1.80;37.40;;;;;;10480437;28;20896;-74
2023/02/05 07:14:02;;;;;;;4.07;3.77;;;1.80;37.40;;;;;;10480822;28;20232;-74
2023/02/05 07:19:06;;;;;;;5.43;4.83;;;1.80;37.40;;;;;;10481239;28;20754;-75
2023/02/05 07:24:09;;;;;;;6.70;6.03;;;1.70;37.40;;;;;;10473177;28;20236;-74
2023/02/05 07:29:13;;;;;;;12.73;10.77;;;1.70;37.40;;;;;;10477650;28;20610;-74
2023/02/05 07:34:17;;;;;;;15.77;12.17;;;1.70;37.60;;;;;;10478572;28;20232;-74
2023/02/05 07:39:21;;;;;;;13.03;8.97;;;1.90;37.70;;;;;;10478610;28;20237;-74
2023/02/05 07:44:24;;;;;;;8.53;7.10;;;1.60;37.60;;;;;;10479544;28;20293;-74
2023/02/05 07:49:29;;;;;;;8.20;6.97;;;1.70;37.90;;;;;;10475080;28;20247;-74
2023/02/05 07:54:32;;;;;;;5.80;5.07;;;1.60;39.00;;;;;;10479508;28;20651;-74
2023/02/05 07:59:35;;;;;;;5.60;5.10;;;1.60;38.30;;;;;;10479545;28;20240;-72
2023/02/05 08:04:40;;;;;;;5.50;5.00;;;1.60;38.50;;;;;;10478018;28;20625;-72
2023/02/05 08:09:43;;;;;;;8.77;7.40;;;1.70;38.90;;;;;;10478778;28;20228;-72
2023/02/05 08:14:46;;;;;;;6.03;5.43;;;1.90;39.40;;;;;;10476591;28;20243;-71
2023/02/05 08:19:51;;;;;;;5.53;4.97;;;2.00;39.70;;;;;;10474737;28;20240;-72
2023/02/05 08:24:55;;;;;;;5.87;5.27;;;2.20;40.10;;;;;;10477153;28;20243;-71
2023/02/05 08:29:58;;;;;;;6.03;5.43;;;2.50;40.20;;;;;;10475906;28;20232;-70
2023/02/05 08:35:02;;;;;;;6.27;5.67;;;2.70;40.30;;;;;;10475805;28;20228;-71
2023/02/05 08:40:06;;;;;;;5.33;4.83;;;2.90;40.50;;;;;;10475194;28;20695;-71
2023/02/05 08:45:10;;;;;;;5.50;5.00;;;3.10;40.10;;;;;;10478077;28;20236;-71
2023/02/05 08:50:14;;;;;;;4.37;3.97;;;3.30;40.10;;;;;;10466892;28;20873;-71
2023/02/05 08:55:18;;;;;;;4.97;4.50;;;3.40;40.30;;;;;;10481184;28;20242;-70
2023/02/05 09:00:21;;;;;;;5.07;4.57;;;3.60;40.50;;;;;;10481848;28;20604;-70
2023/02/05 09:05:26;;;;;;;4.57;4.10;;;3.80;40.40;;;;;;10483066;28;20662;-70
2023/02/05 09:10:29;;;;;;;4.33;3.87;;;4.20;40.80;;;;;;10481938;28;20220;-74
2023/02/05 09:15:32;;;;;;;7.43;5.83;;;4.20;40.10;;;;;;10485966;28;20665;-76
2023/02/05 09:20:40;;;;;;;10.07;7.67;;;4.40;39.90;;;;;;10482889;28;20232;-74
2023/02/05 09:25:44;;;;;;;4.20;3.80;;;4.50;40.10;;;;;;10484049;28;20224;-74
2023/02/05 09:30:47;;;;;;;4.13;3.73;;;4.70;40.20;;;;;;10483421;28;20245;-74
2023/02/05 09:35:51;;;;;;;4.50;4.10;;;4.80;40.00;;;;;;10482321;28;20232;-74
2023/02/05 09:40:58;;;;;;;4.37;3.97;;;5.00;39.80;;;;;;10485373;28;20229;-74
2023/02/05 09:46:07;;;;;;;5.03;4.40;;;5.20;39.80;;;;;;10483361;28;20692;-74
2023/02/05 09:51:12;;;;;;;3.67;3.37;;;5.40;39.80;;;;;;10475151;28;20811;-74
2023/02/05 09:56:17;;;;;;;3.57;3.27;;;5.60;39.40;;;;;;10479130;28;20235;-74
2023/02/05 10:01:23;;;;;;;3.20;3.00;;;5.70;39.20;;;;;;10485127;28;20629;-75
2023/02/05 10:06:40;;;;;;;2.83;2.50;;;5.80;38.70;;;;;;10482878;28;20322;-75
2023/02/05 10:11:51;;;;;;;3.23;2.80;;;6.00;38.10;;;;;;10480137;28;20227;-70
2023/02/05 10:17:10;;;;;;;2.83;2.60;;;6.00;38.10;;;;;;10483816;28;20240;-71
2023/02/05 10:22:23;;;;;;;3.37;3.07;;;6.10;37.70;;;;;;10483148;28;21076;-71
2023/02/05 10:27:36;;;;;;;3.30;3.00;;;6.30;38.60;;;;;;10480456;28;20712;-71
2023/02/05 10:32:51;;;;;;;3.47;3.17;;;6.40;38.60;;;;;;10481112;28;20228;-70
2023/02/05 10:37:58;;;;;;;3.27;2.97;;;6.50;38.00;;;;;;10482801;28;20243;-71
2023/02/05 10:43:05;;;;;;;2.90;2.70;;;6.50;38.00;;;;;;10479476;28;20236;-71
2023/02/05 10:48:25;;;;;;;2.97;2.77;;;6.60;38.10;;;;;;10482424;28;20232;-72
2023/02/05 10:53:31;;;;;;;4.03;3.37;;;6.70;38.20;;;;;;10472656;28;20573;-70
2023/02/05 10:58:45;;;;;;;3.37;3.07;;;6.70;38.20;;;;;;10471753;28;20627;-70
2023/02/05 11:03:59;;;;;;;5.17;4.77;;;6.80;38.20;;;;;;10464464;28;20243;-70
2023/02/05 11:09:26;;;;;;;3.93;2.80;;;6.80;37.80;;;;;;10471612;28;20229;-70
2023/02/05 11:14:33;;;;;;;3.60;3.30;;;6.90;38.30;;;;;;10467370;28;20231;-71
2023/02/05 11:19:37;;;;;;;5.93;3.10;;;7.00;37.80;;;;;;10466546;28;20593;-71
2023/02/05 11:24:42;;;;;;;3.17;2.97;;;7.00;38.30;;;;;;10468058;28;20239;-71
2023/02/05 11:29:45;;;;;;;3.67;2.87;;;7.20;37.90;;;;;;10470420;28;20239;-71
2023/02/05 11:34:48;;;;;;;2.90;2.70;;;7.20;38.00;;;;;;10466309;28;20236;-71
2023/02/05 11:39:53;;;;;;;3.23;2.93;;;7.30;37.90;;;;;;10470318;28;20233;-72
2023/02/05 11:44:58;;;;;;;2.93;2.73;;;7.40;37.40;;;;;;10467917;28;20240;-71
2023/02/05 11:50:03;;;;;;;3.90;3.60;;;7.40;37.70;;;;;;10469603;28;20231;-71
2023/02/05 11:55:25;;;;;;;3.90;3.00;;;7.50;37.50;;;;;;10467888;28;20234;-71
2023/02/05 12:00:29;;;;;;;4.63;3.20;;;7.50;36.10;;;;;;10470091;28;20232;-71
2023/02/05 12:05:37;;;;;;;3.93;3.10;;;7.50;37.20;;;;;;10479654;28;20231;-71
2023/02/05 12:10:51;;;;;;;2.97;2.77;;;7.50;36.80;;;;;;10473581;28;20232;-71
2023/02/05 12:16:02;;;;;;;2.53;2.37;;;7.50;36.40;;;;;;10479749;28;20232;-71
2023/02/05 12:21:13;;;;;;;4.37;3.50;;;7.50;36.00;;;;;;10474987;28;20251;-71
2023/02/05 12:26:32;;;;;;;3.00;2.80;;;7.50;36.50;;;;;;10477637;28;20228;-71
2023/02/05 12:31:47;;;;;;;2.63;2.43;;;7.50;36.30;;;;;;10484645;28;20715;-71
2023/02/05 12:37:07;;;;;;;2.57;2.30;;;7.60;36.50;;;;;;10484356;28;20651;-71
2023/02/05 12:42:29;;;;;;;2.60;2.40;;;7.60;36.10;;;;;;10485003;28;20227;-71
2023/02/05 12:47:49;;;;;;;2.97;2.20;;;7.60;35.80;;;;;;10485935;28;20227;-71
2023/02/05 12:53:03;;;;;;;2.30;2.10;;;7.60;35.80;;;;;;10484630;28;20247;-71
2023/02/05 12:58:13;;;;;;;2.63;2.17;;;7.60;36.10;;;;;;10484183;28;20231;-71
2023/02/05 13:03:23;;;;;;;2.70;2.50;;;7.70;36.50;;;;;;10481912;28;20267;-71
2023/02/05 13:08:39;;;;;;;3.93;3.10;;;7.70;36.50;;;;;;10484037;28;20298;-71
2023/02/05 13:13:50;;;;;;;3.23;2.90;;;7.70;36.40;;;;;;10481850;28;20231;-72
2023/02/05 13:18:59;;;;;;;3.30;3.00;;;7.80;36.60;;;;;;10473575;28;20228;-72
2023/02/05 13:29:49;;;;;;;3.53;3.23;;;7.70;36.80;;;;;;10482375;28;20232;-71
2023/02/05 13:34:55;;;;;;;3.97;3.67;;;7.70;37.00;;;;;;10478789;28;20232;-71
2023/02/05 13:40:21;;;;;;;3.77;3.27;;;7.60;37.20;;;;;;10480586;28;20263;-72
2023/02/05 13:45:56;;;;;;;4.00;3.60;;;7.50;36.90;;;;;;10479818;28;20228;-71
2023/02/05 13:51:33;;;;;;;3.60;3.30;;;7.40;37.20;;;;;;10477696;28;20353;-72
2023/02/05 13:56:47;;;;;;;3.53;3.10;;;7.30;37.20;;;;;;10463481;28;20231;-71
2023/02/05 14:01:56;;;;;;;4.13;3.50;;;7.30;37.80;;;;;;10478964;28;20239;-72
2023/02/05 14:07:03;;;;;;;4.93;4.50;;;7.30;37.80;;;;;;10474562;28;20224;-72
2023/02/05 14:12:09;;;;;;;4.40;4.00;;;7.20;38.00;;;;;;10474545;28;20220;-72
2023/02/05 14:17:48;;;;;;;4.07;3.57;;;7.20;38.60;;;;;;10475469;28;20232;-71
2023/02/05 14:22:56;;;;;;;4.57;4.13;;;7.10;38.50;;;;;;10478128;28;20298;-72
2023/02/05 14:27:59;;;;;;;4.10;3.80;;;7.20;38.60;;;;;;10475743;28;20235;-72
2023/02/05 14:33:05;;;;;;;3.80;3.50;;;7.10;38.50;;;;;;10477122;28;20320;-72
2023/02/05 14:38:23;;;;;;;3.60;3.27;;;7.10;38.50;;;;;;10479097;28;20570;-72
2023/02/05 14:43:32;;;;;;;3.97;3.67;;;7.20;40.20;;;;;;10476577;28;20262;-72
2023/02/05 14:48:42;;;;;;;5.13;3.77;;;7.20;38.60;;;;;;10479667;28;20833;-72
2023/02/05 14:53:56;;;;;;;4.03;3.67;;;7.30;38.70;;;;;;10473227;28;20239;-72
2023/02/05 14:59:04;;;;;;;5.13;4.07;;;7.30;38.70;;;;;;10474823;28;20587;-72
2023/02/05 15:04:22;;;;;;;3.70;3.40;;;7.20;38.60;;;;;;10475913;28;20236;-72
2023/02/05 15:09:40;;;;;;;4.57;4.17;;;7.20;38.60;;;;;;10474594;28;20236;-72
2023/02/05 15:14:51;;;;;;;5.13;3.97;;;7.10;38.50;;;;;;10477398;28;20305;-72
2023/02/05 15:20:00;;;;;;;5.27;4.73;;;7.10;38.50;;;;;;10476284;28;20240;-72
2023/02/05 15:25:14;;;;;;;5.13;4.73;;;7.10;38.60;;;;;;10476635;28;20251;-72
2023/02/05 15:30:22;;;;;;;10.70;5.00;;;7.20;38.60;;;;;;10473553;28;20385;-81
2023/02/05 15:35:28;;;;;;;4.83;4.00;;;7.20;38.60;;;;;;10477843;28;20311;-72
2023/02/05 15:40:37;;;;;;;5.10;4.60;;;7.20;38.60;;;;;;10473552;28;20231;-72
2023/02/05 15:45:43;;;;;;;7.27;4.93;;;7.20;38.60;;;;;;10473183;28;20611;-71
2023/02/05 15:50:50;;;;;;;6.17;5.57;;;7.20;40.10;;;;;;10475342;28;20734;-72
2023/02/05 15:55:56;;;;;;;7.10;6.37;;;7.30;39.20;;;;;;10475820;28;20623;-72
2023/02/05 16:00:59;;;;;;;6.70;6.00;;;7.40;38.80;;;;;;10473649;28;20228;-72
2023/02/05 16:06:02;;;;;;;5.23;4.70;;;7.30;38.70;;;;;;10476761;28;20771;-72
2023/02/05 16:11:07;;;;;;;6.23;5.63;;;7.30;38.70;;;;;;10474685;28;20232;-72
2023/02/05 16:16:16;;;;;;;4.87;4.40;;;7.30;38.70;;;;;;10475270;28;20358;-72
2023/02/05 16:21:26;;;;;;;6.93;6.33;;;7.30;38.70;;;;;;10472964;28;20243;-72
2023/02/05 16:26:37;;;;;;;11.37;9.27;;;7.30;38.70;;;;;;10470009;28;20234;-72
2023/02/05 16:31:41;;;;;;;11.07;9.73;;;7.30;38.70;;;;;;10469554;28;20792;-72
2023/02/05 16:36:47;;;;;;;12.37;11.23;;;7.20;38.60;;;;;;10472407;28;20232;-72
2023/02/05 16:42:03;;;;;;;10.63;9.03;;;7.20;38.60;;;;;;10470461;28;20716;-72
2023/02/05 16:47:12;;;;;;;11.50;10.30;;;7.20;38.60;;;;;;10474692;28;20227;-72
2023/02/05 16:52:33;;;;;;;17.63;15.90;;;7.10;38.80;;;;;;10473203;28;20232;-71
2023/02/05 16:57:39;;;;;;;14.03;12.63;;;7.10;39.00;;;;;;10473471;28;20232;-72
2023/02/05 17:02:43;;;;;;;7.30;6.50;;;7.10;39.00;;;;;;10470343;28;20229;-72
2023/02/05 17:07:54;;;;;;;8.47;7.67;;;7.10;38.80;;;;;;10471993;28;20228;-70
2023/02/05 17:13:03;;;;;;;9.97;8.97;;;7.10;39.00;;;;;;10464584;28;20240;-70
2023/02/05 17:18:28;;;;;;;8.77;7.87;;;7.10;39.00;;;;;;10475033;28;20274;-70
2023/02/05 17:23:31;;;;;;;11.10;9.67;;;7.20;39.20;;;;;;10472895;28;20235;-70
2023/02/05 17:28:41;;;;;;;10.23;9.10;;;7.20;39.00;;;;;;10480560;28;20239;-72
2023/02/05 17:33:50;;;;;;;7.47;6.77;;;7.20;39.00;;;;;;10482977;28;20319;-71
2023/02/05 17:38:53;;;;;;;7.73;6.70;;;7.20;39.20;;;;;;10479880;28;20232;-71
2023/02/05 17:43:58;;;;;;;11.23;9.93;;;7.20;39.00;;;;;;10481196;28;20232;-72
2023/02/05 17:49:01;;;;;;;8.30;7.50;;;7.20;39.10;;;;;;10482725;28;20220;-72
2023/02/05 17:54:06;;;;;;;6.97;6.37;;;7.20;38.90;;;;;;10483075;28;20712;-72
2023/02/05 17:59:11;;;;;;;6.93;6.13;;;7.10;38.50;;;;;;10480642;28;20236;-72
2023/02/05 18:04:17;;;;;;;8.73;7.83;;;7.00;38.90;;;;;;10480862;28;20240;-72
2023/02/05 18:09:20;;;;;;;9.90;8.90;;;7.00;38.90;;;;;;10479807;28;20228;-72
2023/02/05 18:14:24;;;;;;;11.20;8.53;;;7.00;39.00;;;;;;10478892;28;20701;-72
2023/02/05 18:19:29;;;;;;;8.17;7.03;;;7.00;39.20;;;;;;10481887;28;20224;-72
2023/02/05 18:24:35;;;;;;;5.30;4.80;;;6.90;38.90;;;;;;10474182;28;20235;-71
2023/02/05 18:29:40;;;;;;;4.37;3.77;;;6.90;38.60;;;;;;10480258;28;20232;-71
2023/02/05 18:34:45;;;;;;;4.20;3.90;;;6.90;38.50;;;;;;10478316;28;20783;-71
2023/02/05 18:39:49;;;;;;;3.90;3.60;;;6.80;38.70;;;;;;10478317;28;20244;-71
2023/02/05 18:44:54;;;;;;;6.87;4.50;;;6.80;38.90;;;;;;10480196;28;20254;-71
2023/02/05 18:49:57;;;;;;;7.17;5.83;;;6.70;39.00;;;;;;10480562;28;20235;-72
2023/02/05 18:55:00;;;;;;;5.17;4.67;;;6.70;39.00;;;;;;10482915;28;20251;-71
2023/02/05 19:00:05;;;;;;;5.97;5.27;;;6.70;39.00;;;;;;10475999;28;20653;-71
2023/02/05 19:05:10;;;;;;;5.63;5.03;;;6.70;39.30;;;;;;10480915;28;20228;-71
2023/02/05 19:10:14;;;;;;;7.17;6.47;;;6.60;39.20;;;;;;10478078;28;20232;-71
2023/02/05 19:15:19;;;;;;;6.47;5.23;;;6.60;39.20;;;;;;10478642;28;20239;-71
2023/02/05 19:20:22;;;;;;;5.33;4.83;;;6.60;39.30;;;;;;10477857;28;20244;-71
2023/02/05 19:25:25;;;;;;;5.20;4.70;;;6.60;39.20;;;;;;10479137;28;20605;-71
2023/02/05 19:30:30;;;;;;;5.00;4.60;;;6.70;39.30;;;;;;10477157;28;20235;-71
2023/02/05 19:35:33;;;;;;;6.67;5.13;;;6.60;39.30;;;;;;10469876;28;20263;-71
2023/02/05 19:40:36;;;;;;;5.80;5.30;;;6.70;39.30;;;;;;10469168;28;20258;-72
2023/02/05 19:45:41;;;;;;;5.43;4.97;;;6.60;39.00;;;;;;10470649;28;20854;-71
2023/02/05 19:50:44;;;;;;;5.00;4.50;;;6.60;38.90;;;;;;10469251;28;20235;-71
2023/02/05 19:55:47;;;;;;;5.87;4.60;;;6.60;38.70;;;;;;10471784;28;20244;-71
2023/02/05 20:00:52;;;;;;;4.77;4.37;;;6.60;38.60;;;;;;10470283;28;20233;-71
2023/02/05 20:05:59;;;;;;;5.00;4.50;;;6.50;38.60;;;;;;10468004;28;20276;-71
2023/02/05 20:11:03;;;;;;;4.63;4.23;;;6.50;38.50;;;;;;10469830;28;20584;-70
2023/02/05 20:16:11;;;;;;;4.37;4.07;;;6.40;38.40;;;;;;10467597;28;20224;-70
2023/02/05 20:21:17;;;;;;;4.47;4.07;;;6.40;38.50;;;;;;10466595;28;20771;-70
2023/02/05 20:26:21;;;;;;;4.90;4.40;;;6.40;38.50;;;;;;10468156;28;20231;-70
2023/02/05 20:31:33;;;;;;;4.53;4.13;;;6.30;38.60;;;;;;10466303;28;20600;-70
2023/02/05 20:36:37;;;;;;;4.67;4.13;;;6.40;38.60;;;;;;10469902;28;20235;-70
2023/02/05 20:41:40;;;;;;;5.03;4.63;;;6.30;38.40;;;;;;10468110;28;20603;-71
2023/02/05 20:46:45;;;;;;;4.83;4.43;;;6.30;38.40;;;;;;10467373;28;20231;-71
2023/02/05 20:51:48;;;;;;;4.50;4.10;;;6.30;38.30;;;;;;10473400;28;20624;-71
2023/02/05 20:56:55;;;;;;;4.57;4.17;;;6.30;38.10;;;;;;10475729;28;20227;-70
2023/02/05 21:02:01;;;;;;;4.67;4.27;;;6.30;38.10;;;;;;10475219;28;20255;-70
2023/02/05 21:07:04;;;;;;;5.20;4.80;;;6.20;38.10;;;;;;10473980;28;20224;-70
2023/02/05 21:12:08;;;;;;;5.60;5.10;;;6.20;38.10;;;;;;10475554;28;20590;-70
2023/02/05 21:17:12;;;;;;;6.20;5.63;;;6.20;38.10;;;;;;10478025;28;20232;-70
2023/02/05 21:22:15;;;;;;;5.73;4.90;;;6.20;37.90;;;;;;10483303;28;20236;-70
2023/02/05 21:27:21;;;;;;;5.67;5.17;;;6.10;38.00;;;;;;10483018;28;20232;-70
2023/02/05 21:32:26;;;;;;;5.80;5.30;;;6.20;38.10;;;;;;10478705;28;20239;-70
2023/02/05 21:37:31;;;;;;;5.57;5.07;;;6.10;38.00;;;;;;10481947;28;20232;-70
2023/02/05 21:42:34;;;;;;;4.93;4.53;;;6.10;38.00;;;;;;10482886;28;20256;-70
2023/02/05 21:47:39;;;;;;;5.23;4.43;;;6.00;37.90;;;;;;10482174;28;20235;-70
2023/02/05 21:52:42;;;;;;;4.77;4.37;;;6.00;38.10;;;;;;10485215;28;20232;-70
2023/02/05 21:57:45;;;;;;;5.10;4.70;;;6.00;38.20;;;;;;10481171;28;20220;-69
2023/02/05 22:02:50;;;;;;;4.63;4.23;;;6.00;38.90;;;;;;10483058;28;20616;-69
2023/02/05 22:07:53;;;;;;;5.03;4.63;;;5.90;38.20;;;;;;10482064;28;20251;-69
2023/02/05 22:12:56;;;;;;;4.97;4.57;;;5.90;38.20;;;;;;10483171;28;20736;-69
2023/02/05 22:18:00;;;;;;;4.80;4.40;;;5.90;38.20;;;;;;10484146;28;20232;-69
2023/02/05 22:23:04;;;;;;;5.03;4.50;;;5.90;38.10;;;;;;10479803;28;20630;-70
2023/02/05 22:28:07;;;;;;;4.63;4.23;;;5.90;38.20;;;;;;10482975;28;20311;-70
2023/02/05 22:33:12;;;;;;;4.67;4.03;;;5.90;38.20;;;;;;10478506;28;20303;-70
2023/02/05 22:38:15;;;;;;;4.57;4.17;;;6.00;38.60;;;;;;10481330;28;20229;-70
2023/02/05 22:43:18;;;;;;;4.03;3.63;;;5.90;38.10;;;;;;10479041;28;20233;-70
2023/02/05 22:48:23;;;;;;;4.83;4.43;;;5.90;38.00;;;;;;10479728;28;21294;-70
2023/02/05 22:53:26;;;;;;;4.90;4.50;;;5.90;38.00;;;;;;10482734;28;20236;-70
2023/02/05 22:58:29;;;;;;;5.17;4.37;;;5.90;37.90;;;;;;10479920;28;20251;-70
2023/02/05 23:03:34;;;;;;;4.80;4.40;;;5.80;37.50;;;;;;10477985;28;20640;-70
2023/02/05 23:08:38;;;;;;;5.10;4.70;;;5.80;37.50;;;;;;10480091;28;20283;-71
2023/02/05 23:13:42;;;;;;;4.73;4.33;;;5.70;37.40;;;;;;10478748;28;20236;-71
2023/02/05 23:18:47;;;;;;;4.47;4.13;;;5.70;37.50;;;;;;10481201;28;20239;-71
2023/02/05 23:23:51;;;;;;;4.40;4.10;;;5.60;37.40;;;;;;10479159;28;20251;-71
2023/02/05 23:28:55;;;;;;;4.70;4.30;;;5.60;37.40;;;;;;10482129;28;20235;-71
2023/02/05 23:34:00;;;;;;;4.03;3.73;;;5.50;37.30;;;;;;10478863;28;20232;-72
2023/02/05 23:39:03;;;;;;;4.33;3.97;;;5.40;37.20;;;;;;10479078;28;20228;-72
2023/02/05 23:44:10;;;;;;;4.93;4.53;;;5.40;37.60;;;;;;10477059;28;20232;-72
2023/02/05 23:49:16;;;;;;;4.47;4.13;;;5.30;37.50;;;;;;10480143;28;20247;-72
2023/02/05 23:54:20;;;;;;;4.80;4.40;;;5.30;37.30;;;;;;10480262;28;20232;-72
2023/02/05 23:59:23;;;;;;;4.80;4.40;;;5.20;37.40;;;;;;10480028;28;20232;-72
